sensor_id;sensor_type;location;lat;lon;timestamp;temperature;humidity
65396;HTU21D;52004;45.136;39.010;2023-01-31T00:01:06;5.37;64.67
65396;HTU21D;52004;45.136;39.010;2023-01-31T00:03:32;5.38;64.67
65396;HTU21D;52004;45.136;39.010;2023-01-31T00:05:58;5.39;64.69
65396;HTU21D;52004;45.136;39.010;2023-01-31T00:08:33;5.45;64.62
65396;HTU21D;52004;45.136;39.010;2023-01-31T00:10:59;5.45;64.60
65396;HTU21D;52004;45.136;39.010;2023-01-31T00:13:24;5.46;64.59
65396;HTU21D;52004;45.136;39.010;2023-01-31T00:15:54;5.45;64.56
65396;HTU21D;52004;45.136;39.010;2023-01-31T00:18:20;5.43;64.56
65396;HTU21D;52004;45.136;39.010;2023-01-31T00:20:46;5.40;64.57
65396;HTU21D;52004;45.136;39.010;2023-01-31T00:23:11;5.39;64.62
65396;HTU21D;52004;45.136;39.010;2023-01-31T00:25:37;5.38;64.67
65396;HTU21D;52004;45.136;39.010;2023-01-31T00:28:03;5.37;64.68
65396;HTU21D;52004;45.136;39.010;2023-01-31T00:30:29;5.36;64.72
65396;HTU21D;52004;45.136;39.010;2023-01-31T00:32:55;5.37;64.76
65396;HTU21D;52004;45.136;39.010;2023-01-31T00:35:23;5.38;64.79
65396;HTU21D;52004;45.136;39.010;2023-01-31T00:37:49;5.42;64.76
65396;HTU21D;52004;45.136;39.010;2023-01-31T00:40:15;5.45;64.70
65396;HTU21D;52004;45.136;39.010;2023-01-31T00:42:43;5.47;64.66
65396;HTU21D;52004;45.136;39.010;2023-01-31T00:45:10;5.47;64.64
65396;HTU21D;52004;45.136;39.010;2023-01-31T00:47:36;5.48;64.63
65396;HTU21D;52004;45.136;39.010;2023-01-31T00:50:02;5.47;64.66
65396;HTU21D;52004;45.136;39.010;2023-01-31T00:52:28;5.48;64.69
65396;HTU21D;52004;45.136;39.010;2023-01-31T00:54:55;5.50;64.68
65396;HTU21D;52004;45.136;39.010;2023-01-31T00:57:21;5.50;64.63
65396;HTU21D;52004;45.136;39.010;2023-01-31T00:59:47;5.50;64.61
65396;HTU21D;52004;45.136;39.010;2023-01-31T01:02:13;5.49;64.64
65396;HTU21D;52004;45.136;39.010;2023-01-31T01:04:39;5.48;64.70
65396;HTU21D;52004;45.136;39.010;2023-01-31T01:07:05;5.51;64.73
65396;HTU21D;52004;45.136;39.010;2023-01-31T01:09:32;5.53;64.71
65396;HTU21D;52004;45.136;39.010;2023-01-31T01:11:58;5.52;64.70
65396;HTU21D;52004;45.136;39.010;2023-01-31T01:14:23;5.52;64.76
65396;HTU21D;52004;45.136;39.010;2023-01-31T01:16:49;5.54;64.76
65396;HTU21D;52004;45.136;39.010;2023-01-31T01:19:16;5.55;64.78
65396;HTU21D;52004;45.136;39.010;2023-01-31T01:21:45;5.57;64.76
65396;HTU21D;52004;45.136;39.010;2023-01-31T01:24:12;5.59;64.78
65396;HTU21D;52004;45.136;39.010;2023-01-31T01:26:39;5.61;64.77
65396;HTU21D;52004;45.136;39.010;2023-01-31T01:29:05;5.62;64.76
65396;HTU21D;52004;45.136;39.010;2023-01-31T01:31:31;5.61;64.72
65396;HTU21D;52004;45.136;39.010;2023-01-31T01:34:00;5.61;64.73
65396;HTU21D;52004;45.136;39.010;2023-01-31T01:36:27;5.61;64.76
65396;HTU21D;52004;45.136;39.010;2023-01-31T01:38:53;5.61;64.76
65396;HTU21D;52004;45.136;39.010;2023-01-31T01:41:22;5.62;64.75
65396;HTU21D;52004;45.136;39.010;2023-01-31T01:43:49;5.60;64.75
65396;HTU21D;52004;45.136;39.010;2023-01-31T01:46:22;5.60;64.77
65396;HTU21D;52004;45.136;39.010;2023-01-31T01:48:50;5.59;64.79
65396;HTU21D;52004;45.136;39.010;2023-01-31T01:51:18;5.56;64.82
65396;HTU21D;52004;45.136;39.010;2023-01-31T01:53:46;5.55;64.83
65396;HTU21D;52004;45.136;39.010;2023-01-31T01:56:15;5.54;64.79
65396;HTU21D;52004;45.136;39.010;2023-01-31T01:58:47;5.48;64.83
65396;HTU21D;52004;45.136;39.010;2023-01-31T02:01:14;5.43;64.96
65396;HTU21D;52004;45.136;39.010;2023-01-31T02:03:45;5.41;65.02
65396;HTU21D;52004;45.136;39.010;2023-01-31T02:06:12;5.41;65.05
65396;HTU21D;52004;45.136;39.010;2023-01-31T02:08:40;5.42;65.04
65396;HTU21D;52004;45.136;39.010;2023-01-31T02:11:11;5.40;65.04
65396;HTU21D;52004;45.136;39.010;2023-01-31T02:13:40;5.39;65.04
65396;HTU21D;52004;45.136;39.010;2023-01-31T02:16:13;5.36;65.05
65396;HTU21D;52004;45.136;39.010;2023-01-31T02:18:39;5.33;65.05
65396;HTU21D;52004;45.136;39.010;2023-01-31T02:39:27;5.34;65.21
65396;HTU21D;52004;45.136;39.010;2023-01-31T02:44:36;5.28;65.23
65396;HTU21D;52004;45.136;39.010;2023-01-31T02:47:26;5.28;65.28
65396;HTU21D;52004;45.136;39.010;2023-01-31T02:50:05;5.32;65.27
65396;HTU21D;52004;45.136;39.010;2023-01-31T02:52:38;5.31;65.19
65396;HTU21D;52004;45.136;39.010;2023-01-31T02:55:13;5.26;65.22
65396;HTU21D;52004;45.136;39.010;2023-01-31T02:57:59;5.22;65.30
65396;HTU21D;52004;45.136;39.010;2023-01-31T03:00:26;5.21;65.36
65396;HTU21D;52004;45.136;39.010;2023-01-31T03:02:54;5.18;65.37
65396;HTU21D;52004;45.136;39.010;2023-01-31T03:05:21;5.13;65.42
65396;HTU21D;52004;45.136;39.010;2023-01-31T03:07:52;5.10;65.46
65396;HTU21D;52004;45.136;39.010;2023-01-31T03:10:28;5.11;65.43
65396;HTU21D;52004;45.136;39.010;2023-01-31T03:13:01;5.13;65.41
65396;HTU21D;52004;45.136;39.010;2023-01-31T03:15:37;5.15;65.37
65396;HTU21D;52004;45.136;39.010;2023-01-31T03:18:30;5.15;65.43
65396;HTU21D;52004;45.136;39.010;2023-01-31T03:21:05;5.15;65.49
65396;HTU21D;52004;45.136;39.010;2023-01-31T03:23:33;5.17;65.48
65396;HTU21D;52004;45.136;39.010;2023-01-31T03:26:02;5.16;65.46
65396;HTU21D;52004;45.136;39.010;2023-01-31T03:28:29;5.15;65.48
65396;HTU21D;52004;45.136;39.010;2023-01-31T03:33:38;5.18;65.53
65396;HTU21D;52004;45.136;39.010;2023-01-31T03:38:34;5.19;65.50
65396;HTU21D;52004;45.136;39.010;2023-01-31T03:43:30;5.20;65.50
65396;HTU21D;52004;45.136;39.010;2023-01-31T03:46:14;5.21;65.50
65396;HTU21D;52004;45.136;39.010;2023-01-31T03:48:42;5.20;65.51
65396;HTU21D;52004;45.136;39.010;2023-01-31T03:51:11;5.20;65.52
65396;HTU21D;52004;45.136;39.010;2023-01-31T03:53:44;5.20;65.53
65396;HTU21D;52004;45.136;39.010;2023-01-31T03:56:17;5.20;65.56
65396;HTU21D;52004;45.136;39.010;2023-01-31T03:58:49;5.21;65.56
65396;HTU21D;52004;45.136;39.010;2023-01-31T04:01:17;5.21;65.56
65396;HTU21D;52004;45.136;39.010;2023-01-31T04:03:54;5.21;65.55
65396;HTU21D;52004;45.136;39.010;2023-01-31T04:06:20;5.22;65.50
65396;HTU21D;52004;45.136;39.010;2023-01-31T04:08:46;5.21;65.49
65396;HTU21D;52004;45.136;39.010;2023-01-31T04:11:14;5.21;65.50
65396;HTU21D;52004;45.136;39.010;2023-01-31T04:13:40;5.20;65.51
65396;HTU21D;52004;45.136;39.010;2023-01-31T04:16:07;5.19;65.50
65396;HTU21D;52004;45.136;39.010;2023-01-31T04:18:32;5.18;65.54
65396;HTU21D;52004;45.136;39.010;2023-01-31T04:20:58;5.15;65.55
65396;HTU21D;52004;45.136;39.010;2023-01-31T04:23:24;5.12;65.59
65396;HTU21D;52004;45.136;39.010;2023-01-31T04:25:54;5.10;65.66
65396;HTU21D;52004;45.136;39.010;2023-01-31T04:28:20;5.11;65.70
65396;HTU21D;52004;45.136;39.010;2023-01-31T04:30:50;5.11;65.72
65396;HTU21D;52004;45.136;39.010;2023-01-31T04:33:16;5.12;65.74
65396;HTU21D;52004;45.136;39.010;2023-01-31T04:35:42;5.13;65.72
65396;HTU21D;52004;45.136;39.010;2023-01-31T04:38:08;5.13;65.71
65396;HTU21D;52004;45.136;39.010;2023-01-31T04:40:34;5.13;65.72
65396;HTU21D;52004;45.136;39.010;2023-01-31T04:43:00;5.13;65.69
65396;HTU21D;52004;45.136;39.010;2023-01-31T04:45:25;5.10;65.71
65396;HTU21D;52004;45.136;39.010;2023-01-31T04:47:51;5.11;65.75
65396;HTU21D;52004;45.136;39.010;2023-01-31T04:50:17;5.10;65.78
65396;HTU21D;52004;45.136;39.010;2023-01-31T04:52:43;5.09;65.81
65396;HTU21D;52004;45.136;39.010;2023-01-31T04:55:11;5.10;65.86
65396;HTU21D;52004;45.136;39.010;2023-01-31T04:57:37;5.10;65.86
65396;HTU21D;52004;45.136;39.010;2023-01-31T05:00:03;5.10;65.84
65396;HTU21D;52004;45.136;39.010;2023-01-31T05:02:30;5.11;65.89
65396;HTU21D;52004;45.136;39.010;2023-01-31T05:04:56;5.12;65.91
65396;HTU21D;52004;45.136;39.010;2023-01-31T05:07:22;0.00;65.91
65396;HTU21D;52004;45.136;39.010;2023-01-31T05:09:48;5.17;65.89
65396;HTU21D;52004;45.136;39.010;2023-01-31T05:12:14;5.19;65.89
65396;HTU21D;52004;45.136;39.010;2023-01-31T05:14:39;5.21;65.85
65396;HTU21D;52004;45.136;39.010;2023-01-31T05:17:05;5.22;65.88
65396;HTU21D;52004;45.136;39.010;2023-01-31T05:19:31;5.23;65.88
65396;HTU21D;52004;45.136;39.010;2023-01-31T05:21:57;5.23;65.89
65396;HTU21D;52004;45.136;39.010;2023-01-31T05:24:24;5.24;65.91
65396;HTU21D;52004;45.136;39.010;2023-01-31T05:26:50;5.26;65.96
65396;HTU21D;52004;45.136;39.010;2023-01-31T05:29:18;5.30;65.95
65396;HTU21D;52004;45.136;39.010;2023-01-31T05:31:44;5.31;65.98
65396;HTU21D;52004;45.136;39.010;2023-01-31T05:34:10;5.32;66.03
65396;HTU21D;52004;45.136;39.010;2023-01-31T05:36:40;5.35;66.04
65396;HTU21D;52004;45.136;39.010;2023-01-31T05:39:06;5.40;66.04
65396;HTU21D;52004;45.136;39.010;2023-01-31T05:41:32;5.45;66.04
65396;HTU21D;52004;45.136;39.010;2023-01-31T05:43:58;0.00;66.01
65396;HTU21D;52004;45.136;39.010;2023-01-31T05:46:23;5.53;65.99
65396;HTU21D;52004;45.136;39.010;2023-01-31T05:48:49;5.60;65.92
65396;HTU21D;52004;45.136;39.010;2023-01-31T05:51:15;5.63;65.87
65396;HTU21D;52004;45.136;39.010;2023-01-31T05:53:41;5.62;65.89
65396;HTU21D;52004;45.136;39.010;2023-01-31T05:56:07;5.65;65.99
65396;HTU21D;52004;45.136;39.010;2023-01-31T05:58:33;5.69;66.02
65396;HTU21D;52004;45.136;39.010;2023-01-31T06:00:59;5.74;66.02
65396;HTU21D;52004;45.136;39.010;2023-01-31T06:03:25;5.77;65.98
65396;HTU21D;52004;45.136;39.010;2023-01-31T06:05:51;0.00;65.98
65396;HTU21D;52004;45.136;39.010;2023-01-31T06:08:17;5.79;66.07
65396;HTU21D;52004;45.136;39.010;2023-01-31T06:10:43;5.84;66.11
65396;HTU21D;52004;45.136;39.010;2023-01-31T06:13:09;0.00;66.09
65396;HTU21D;52004;45.136;39.010;2023-01-31T06:15:35;5.94;66.07
65396;HTU21D;52004;45.136;39.010;2023-01-31T06:18:02;5.97;66.05
65396;HTU21D;52004;45.136;39.010;2023-01-31T06:20:28;5.99;66.12
65396;HTU21D;52004;45.136;39.010;2023-01-31T06:22:54;6.05;66.17
65396;HTU21D;52004;45.136;39.010;2023-01-31T06:25:20;6.10;66.20
65396;HTU21D;52004;45.136;39.010;2023-01-31T06:27:46;6.16;66.19
65396;HTU21D;52004;45.136;39.010;2023-01-31T06:30:12;6.21;66.11
65396;HTU21D;52004;45.136;39.010;2023-01-31T06:32:38;6.23;66.13
65396;HTU21D;52004;45.136;39.010;2023-01-31T06:35:04;6.25;66.17
65396;HTU21D;52004;45.136;39.010;2023-01-31T06:37:30;6.30;66.24
65396;HTU21D;52004;45.136;39.010;2023-01-31T06:39:56;6.36;66.25
65396;HTU21D;52004;45.136;39.010;2023-01-31T06:42:22;6.41;66.27
65396;HTU21D;52004;45.136;39.010;2023-01-31T06:44:48;6.51;66.24
65396;HTU21D;52004;45.136;39.010;2023-01-31T06:47:13;6.55;66.22
65396;HTU21D;52004;45.136;39.010;2023-01-31T06:49:40;6.57;66.20
65396;HTU21D;52004;45.136;39.010;2023-01-31T06:52:06;6.61;66.23
65396;HTU21D;52004;45.136;39.010;2023-01-31T06:54:31;6.64;66.20
65396;HTU21D;52004;45.136;39.010;2023-01-31T06:56:57;6.63;66.17
65396;HTU21D;52004;45.136;39.010;2023-01-31T06:59:23;6.61;66.27
65396;HTU21D;52004;45.136;39.010;2023-01-31T07:01:49;6.64;66.33
65396;HTU21D;52004;45.136;39.010;2023-01-31T07:04:15;6.65;66.33
65396;HTU21D;52004;45.136;39.010;2023-01-31T07:06:41;6.66;66.37
65396;HTU21D;52004;45.136;39.010;2023-01-31T07:09:06;6.71;66.46
65396;HTU21D;52004;45.136;39.010;2023-01-31T07:11:32;6.78;66.46
65396;HTU21D;52004;45.136;39.010;2023-01-31T07:13:58;6.81;66.42
65396;HTU21D;52004;45.136;39.010;2023-01-31T07:16:24;6.87;66.36
65396;HTU21D;52004;45.136;39.010;2023-01-31T07:18:51;6.90;66.36
65396;HTU21D;52004;45.136;39.010;2023-01-31T07:21:17;6.94;66.32
65396;HTU21D;52004;45.136;39.010;2023-01-31T07:23:43;6.98;66.27
65396;HTU21D;52004;45.136;39.010;2023-01-31T07:26:10;6.99;66.30
65396;HTU21D;52004;45.136;39.010;2023-01-31T07:28:35;7.04;66.27
65396;HTU21D;52004;45.136;39.010;2023-01-31T07:31:05;7.04;66.18
65396;HTU21D;52004;45.136;39.010;2023-01-31T07:33:34;7.03;66.12
65396;HTU21D;52004;45.136;39.010;2023-01-31T07:36:01;7.04;66.11
65396;HTU21D;52004;45.136;39.010;2023-01-31T07:38:27;7.03;66.10
65396;HTU21D;52004;45.136;39.010;2023-01-31T07:40:56;7.04;66.15
65396;HTU21D;52004;45.136;39.010;2023-01-31T07:43:22;7.05;66.20
65396;HTU21D;52004;45.136;39.010;2023-01-31T07:45:48;7.04;66.20
65396;HTU21D;52004;45.136;39.010;2023-01-31T07:48:14;7.09;66.32
65396;HTU21D;52004;45.136;39.010;2023-01-31T07:50:40;7.12;66.36
65396;HTU21D;52004;45.136;39.010;2023-01-31T07:53:06;7.18;66.30
65396;HTU21D;52004;45.136;39.010;2023-01-31T07:55:32;7.23;66.40
65396;HTU21D;52004;45.136;39.010;2023-01-31T07:57:58;7.30;66.46
65396;HTU21D;52004;45.136;39.010;2023-01-31T08:00:23;7.38;66.46
65396;HTU21D;52004;45.136;39.010;2023-01-31T08:03:20;7.48;66.46
65396;HTU21D;52004;45.136;39.010;2023-01-31T08:06:01;7.56;66.39
65396;HTU21D;52004;45.136;39.010;2023-01-31T08:08:28;7.63;66.44
65396;HTU21D;52004;45.136;39.010;2023-01-31T08:10:53;7.70;66.43
65396;HTU21D;52004;45.136;39.010;2023-01-31T08:13:19;7.78;66.39
65396;HTU21D;52004;45.136;39.010;2023-01-31T08:15:46;7.86;66.33
65396;HTU21D;52004;45.136;39.010;2023-01-31T08:18:12;7.96;66.27
65396;HTU21D;52004;45.136;39.010;2023-01-31T08:20:38;8.03;66.25
65396;HTU21D;52004;45.136;39.010;2023-01-31T08:23:05;8.15;66.29
65396;HTU21D;52004;45.136;39.010;2023-01-31T08:25:31;8.24;66.28
65396;HTU21D;52004;45.136;39.010;2023-01-31T08:27:57;8.34;66.28
65396;HTU21D;52004;45.136;39.010;2023-01-31T08:30:23;8.42;66.26
65396;HTU21D;52004;45.136;39.010;2023-01-31T08:32:49;8.48;66.27
65396;HTU21D;52004;45.136;39.010;2023-01-31T08:35:15;8.57;66.27
65396;HTU21D;52004;45.136;39.010;2023-01-31T08:37:41;8.63;66.30
65396;HTU21D;52004;45.136;39.010;2023-01-31T08:40:07;8.68;66.20
65396;HTU21D;52004;45.136;39.010;2023-01-31T08:42:34;8.71;66.14
65396;HTU21D;52004;45.136;39.010;2023-01-31T08:45:00;8.73;66.11
65396;HTU21D;52004;45.136;39.010;2023-01-31T08:47:26;8.73;66.08
65396;HTU21D;52004;45.136;39.010;2023-01-31T08:49:51;8.74;66.05
65396;HTU21D;52004;45.136;39.010;2023-01-31T08:52:17;8.72;65.98
65396;HTU21D;52004;45.136;39.010;2023-01-31T08:54:43;8.71;65.99
65396;HTU21D;52004;45.136;39.010;2023-01-31T08:57:09;8.73;66.10
65396;HTU21D;52004;45.136;39.010;2023-01-31T08:59:35;8.78;66.11
65396;HTU21D;52004;45.136;39.010;2023-01-31T09:02:01;8.82;66.04
65396;HTU21D;52004;45.136;39.010;2023-01-31T09:04:27;8.85;66.01
65396;HTU21D;52004;45.136;39.010;2023-01-31T09:06:53;8.89;65.98
65396;HTU21D;52004;45.136;39.010;2023-01-31T09:09:20;8.88;65.87
65396;HTU21D;52004;45.136;39.010;2023-01-31T09:11:45;8.86;65.90
65396;HTU21D;52004;45.136;39.010;2023-01-31T09:14:11;8.87;65.90
65396;HTU21D;52004;45.136;39.010;2023-01-31T09:16:37;8.90;65.85
65396;HTU21D;52004;45.136;39.010;2023-01-31T09:19:03;8.92;65.82
65396;HTU21D;52004;45.136;39.010;2023-01-31T09:21:29;8.95;65.78
65396;HTU21D;52004;45.136;39.010;2023-01-31T09:23:56;8.97;65.77
65396;HTU21D;52004;45.136;39.010;2023-01-31T09:26:22;9.03;65.76
65396;HTU21D;52004;45.136;39.010;2023-01-31T09:28:48;9.06;65.78
65396;HTU21D;52004;45.136;39.010;2023-01-31T09:31:16;9.15;66.17
65396;HTU21D;52004;45.136;39.010;2023-01-31T09:33:42;9.31;66.97
65396;HTU21D;52004;45.136;39.010;2023-01-31T09:36:09;9.52;67.63
65396;HTU21D;52004;45.136;39.010;2023-01-31T09:38:35;9.78;68.09
65396;HTU21D;52004;45.136;39.010;2023-01-31T09:41:05;9.98;67.77
65396;HTU21D;52004;45.136;39.010;2023-01-31T09:43:33;10.11;67.46
65396;HTU21D;52004;45.136;39.010;2023-01-31T09:46:02;10.22;66.99
65396;HTU21D;52004;45.136;39.010;2023-01-31T09:48:32;10.27;66.65
65396;HTU21D;52004;45.136;39.010;2023-01-31T09:51:01;10.29;66.36
65396;HTU21D;52004;45.136;39.010;2023-01-31T09:53:29;10.31;66.44
65396;HTU21D;52004;45.136;39.010;2023-01-31T09:58:28;10.83;69.17
65396;HTU21D;52004;45.136;39.010;2023-01-31T10:06:47;11.33;67.33
65396;HTU21D;52004;45.136;39.010;2023-01-31T10:11:37;11.28;66.13
65396;HTU21D;52004;45.136;39.010;2023-01-31T10:14:17;11.18;65.78
65396;HTU21D;52004;45.136;39.010;2023-01-31T10:16:47;11.04;65.56
65396;HTU21D;52004;45.136;39.010;2023-01-31T10:19:24;10.93;65.46
65396;HTU21D;52004;45.136;39.010;2023-01-31T10:21:55;10.81;65.41
65396;HTU21D;52004;45.136;39.010;2023-01-31T10:24:28;10.70;65.33
65396;HTU21D;52004;45.136;39.010;2023-01-31T10:26:59;10.62;65.37
65396;HTU21D;52004;45.136;39.010;2023-01-31T10:29:30;10.55;65.49
65396;HTU21D;52004;45.136;39.010;2023-01-31T10:34:28;10.56;65.53
65396;HTU21D;52004;45.136;39.010;2023-01-31T10:37:00;10.58;65.67
65396;HTU21D;52004;45.136;39.010;2023-01-31T10:44:54;10.79;65.57
65396;HTU21D;52004;45.136;39.010;2023-01-31T10:47:23;10.84;65.43
65396;HTU21D;52004;45.136;39.010;2023-01-31T10:49:52;10.85;65.21
65396;HTU21D;52004;45.136;39.010;2023-01-31T10:52:42;10.84;65.04
65396;HTU21D;52004;45.136;39.010;2023-01-31T10:57:48;10.75;64.76
65396;HTU21D;52004;45.136;39.010;2023-01-31T11:00:17;10.70;64.74
65396;HTU21D;52004;45.136;39.010;2023-01-31T11:02:43;10.67;64.86
65396;HTU21D;52004;45.136;39.010;2023-01-31T11:05:12;10.66;64.82
65396;HTU21D;52004;45.136;39.010;2023-01-31T11:07:40;10.65;64.76
65396;HTU21D;52004;45.136;39.010;2023-01-31T11:10:22;10.64;64.69
65396;HTU21D;52004;45.136;39.010;2023-01-31T11:12:52;10.64;64.66
65396;HTU21D;52004;45.136;39.010;2023-01-31T11:15:18;10.65;64.71
65396;HTU21D;52004;45.136;39.010;2023-01-31T11:17:45;10.69;64.88
65396;HTU21D;52004;45.136;39.010;2023-01-31T11:20:22;10.78;65.18
65396;HTU21D;52004;45.136;39.010;2023-01-31T11:22:49;10.97;66.25
65396;HTU21D;52004;45.136;39.010;2023-01-31T11:25:17;11.23;66.72
65396;HTU21D;52004;45.136;39.010;2023-01-31T11:27:44;11.40;66.14
65396;HTU21D;52004;45.136;39.010;2023-01-31T11:32:55;11.42;65.03
65396;HTU21D;52004;45.136;39.010;2023-01-31T11:35:25;11.32;64.68
65396;HTU21D;52004;45.136;39.010;2023-01-31T11:37:56;11.24;64.39
65396;HTU21D;52004;45.136;39.010;2023-01-31T11:40:40;11.15;64.27
65396;HTU21D;52004;45.136;39.010;2023-01-31T11:45:44;10.99;64.25
65396;HTU21D;52004;45.136;39.010;2023-01-31T11:50:38;10.95;64.50
65396;HTU21D;52004;45.136;39.010;2023-01-31T11:53:15;11.09;64.88
65396;HTU21D;52004;45.136;39.010;2023-01-31T11:55:42;11.39;65.33
65396;HTU21D;52004;45.136;39.010;2023-01-31T11:58:42;11.64;65.31
65396;HTU21D;52004;45.136;39.010;2023-01-31T12:01:04;11.83;64.90
65396;HTU21D;52004;45.136;39.010;2023-01-31T12:03:30;11.88;64.59
65396;HTU21D;52004;45.136;39.010;2023-01-31T12:06:04;11.88;64.37
65396;HTU21D;52004;45.136;39.010;2023-01-31T12:11:04;11.88;64.18
65396;HTU21D;52004;45.136;39.010;2023-01-31T12:13:30;11.82;64.03
65396;HTU21D;52004;45.136;39.010;2023-01-31T12:16:00;11.74;63.82
65396;HTU21D;52004;45.136;39.010;2023-01-31T12:18:39;11.67;63.61
65396;HTU21D;52004;45.136;39.010;2023-01-31T12:21:13;11.56;63.50
65396;HTU21D;52004;45.136;39.010;2023-01-31T12:29:02;11.18;63.50
65396;HTU21D;52004;45.136;39.010;2023-01-31T12:31:35;11.09;63.51
65396;HTU21D;52004;45.136;39.010;2023-01-31T12:34:13;10.96;63.51
65396;HTU21D;52004;45.136;39.010;2023-01-31T12:39:13;10.74;63.53
65396;HTU21D;52004;45.136;39.010;2023-01-31T12:41:46;10.66;63.61
65396;HTU21D;52004;45.136;39.010;2023-01-31T12:59:41;0.00;63.69
65396;HTU21D;52004;45.136;39.010;2023-01-31T13:02:11;10.24;63.69
65396;HTU21D;52004;45.136;39.010;2023-01-31T13:04:40;10.21;63.65
65396;HTU21D;52004;45.136;39.010;2023-01-31T13:07:11;10.15;63.65
65396;HTU21D;52004;45.136;39.010;2023-01-31T13:09:39;10.13;63.66
65396;HTU21D;52004;45.136;39.010;2023-01-31T13:14:32;10.05;63.73
65396;HTU21D;52004;45.136;39.010;2023-01-31T13:17:00;10.03;63.74
65396;HTU21D;52004;45.136;39.010;2023-01-31T13:19:34;10.01;63.76
65396;HTU21D;52004;45.136;39.010;2023-01-31T13:22:02;9.97;63.76
65396;HTU21D;52004;45.136;39.010;2023-01-31T13:24:31;9.94;63.78
65396;HTU21D;52004;45.136;39.010;2023-01-31T13:27:00;9.90;63.80
65396;HTU21D;52004;45.136;39.010;2023-01-31T13:29:40;9.88;63.80
65396;HTU21D;52004;45.136;39.010;2023-01-31T13:34:44;9.79;63.79
65396;HTU21D;52004;45.136;39.010;2023-01-31T13:37:13;9.76;63.80
65396;HTU21D;52004;45.136;39.010;2023-01-31T13:39:52;9.71;63.82
65396;HTU21D;52004;45.136;39.010;2023-01-31T13:42:19;9.70;63.82
65396;HTU21D;52004;45.136;39.010;2023-01-31T13:44:46;9.68;63.82
65396;HTU21D;52004;45.136;39.010;2023-01-31T13:49:48;9.64;63.85
65396;HTU21D;52004;45.136;39.010;2023-01-31T13:54:42;9.59;63.82
65396;HTU21D;52004;45.136;39.010;2023-01-31T13:57:25;9.54;63.83
65396;HTU21D;52004;45.136;39.010;2023-01-31T13:59:52;9.50;63.86
65396;HTU21D;52004;45.136;39.010;2023-01-31T14:02:19;9.47;63.90
65396;HTU21D;52004;45.136;39.010;2023-01-31T14:04:45;9.46;63.92
65396;HTU21D;52004;45.136;39.010;2023-01-31T14:07:13;9.42;63.92
65396;HTU21D;52004;45.136;39.010;2023-01-31T14:22:14;9.30;63.99
65396;HTU21D;52004;45.136;39.010;2023-01-31T14:27:36;9.24;64.00
65396;HTU21D;52004;45.136;39.010;2023-01-31T14:32:30;9.19;64.05
65396;HTU21D;52004;45.136;39.010;2023-01-31T14:34:57;9.16;64.07
65396;HTU21D;52004;45.136;39.010;2023-01-31T14:40:00;9.12;64.11
65396;HTU21D;52004;45.136;39.010;2023-01-31T14:42:33;9.08;64.12
65396;HTU21D;52004;45.136;39.010;2023-01-31T14:57:51;9.00;64.16
65396;HTU21D;52004;45.136;39.010;2023-01-31T15:00:19;8.97;64.18
65396;HTU21D;52004;45.136;39.010;2023-01-31T15:02:48;8.96;64.18
65396;HTU21D;52004;45.136;39.010;2023-01-31T15:08:29;8.88;64.27
65396;HTU21D;52004;45.136;39.010;2023-01-31T15:10:59;8.88;64.25
65396;HTU21D;52004;45.136;39.010;2023-01-31T15:15:56;8.80;64.27
65396;HTU21D;52004;45.136;39.010;2023-01-31T15:18:23;8.77;64.27
65396;HTU21D;52004;45.136;39.010;2023-01-31T15:20:53;8.75;64.30
65396;HTU21D;52004;45.136;39.010;2023-01-31T15:23:25;8.71;64.31
65396;HTU21D;52004;45.136;39.010;2023-01-31T15:25:51;8.66;64.36
65396;HTU21D;52004;45.136;39.010;2023-01-31T15:28:24;8.64;64.41
65396;HTU21D;52004;45.136;39.010;2023-01-31T15:30:51;8.62;64.43
65396;HTU21D;52004;45.136;39.010;2023-01-31T15:35:45;8.56;64.51
65396;HTU21D;52004;45.136;39.010;2023-01-31T15:43:33;8.48;64.57
65396;HTU21D;52004;45.136;39.010;2023-01-31T15:46:13;8.45;64.59
65396;HTU21D;52004;45.136;39.010;2023-01-31T15:48:41;8.43;64.62
65396;HTU21D;52004;45.136;39.010;2023-01-31T15:51:10;8.41;64.64
65396;HTU21D;52004;45.136;39.010;2023-01-31T15:53:38;8.38;64.68
65396;HTU21D;52004;45.136;39.010;2023-01-31T15:56:04;8.38;64.69
65396;HTU21D;52004;45.136;39.010;2023-01-31T15:58:31;8.37;64.68
65396;HTU21D;52004;45.136;39.010;2023-01-31T16:00:58;8.36;64.67
65396;HTU21D;52004;45.136;39.010;2023-01-31T16:03:26;8.34;64.71
65396;HTU21D;52004;45.136;39.010;2023-01-31T16:05:53;8.34;64.72
65396;HTU21D;52004;45.136;39.010;2023-01-31T16:08:32;8.33;64.69
65396;HTU21D;52004;45.136;39.010;2023-01-31T16:11:02;8.32;64.72
65396;HTU21D;52004;45.136;39.010;2023-01-31T16:13:33;8.31;64.72
65396;HTU21D;52004;45.136;39.010;2023-01-31T16:16:00;8.29;64.73
65396;HTU21D;52004;45.136;39.010;2023-01-31T16:18:26;8.28;64.76
65396;HTU21D;52004;45.136;39.010;2023-01-31T16:20:53;8.27;64.77
65396;HTU21D;52004;45.136;39.010;2023-01-31T16:25:52;8.21;64.80
65396;HTU21D;52004;45.136;39.010;2023-01-31T16:28:19;8.18;64.85
65396;HTU21D;52004;45.136;39.010;2023-01-31T16:30:45;8.17;64.91
65396;HTU21D;52004;45.136;39.010;2023-01-31T16:33:20;8.18;64.92
65396;HTU21D;52004;45.136;39.010;2023-01-31T16:35:47;8.18;64.91
65396;HTU21D;52004;45.136;39.010;2023-01-31T16:38:25;8.18;64.91
65396;HTU21D;52004;45.136;39.010;2023-01-31T16:40:52;8.18;64.89
65396;HTU21D;52004;45.136;39.010;2023-01-31T16:43:26;8.16;64.86
65396;HTU21D;52004;45.136;39.010;2023-01-31T16:45:54;8.14;64.87
65396;HTU21D;52004;45.136;39.010;2023-01-31T16:48:38;8.14;64.88
65396;HTU21D;52004;45.136;39.010;2023-01-31T16:51:49;8.09;64.92
65396;HTU21D;52004;45.136;39.010;2023-01-31T16:56:41;8.05;64.98
65396;HTU21D;52004;45.136;39.010;2023-01-31T17:02:03;7.99;65.01
65396;HTU21D;52004;45.136;39.010;2023-01-31T17:04:35;7.97;65.08
65396;HTU21D;52004;45.136;39.010;2023-01-31T17:07:03;7.94;65.14
65396;HTU21D;52004;45.136;39.010;2023-01-31T17:09:29;7.93;65.17
65396;HTU21D;52004;45.136;39.010;2023-01-31T17:11:55;7.91;65.21
65396;HTU21D;52004;45.136;39.010;2023-01-31T17:14:22;7.90;65.22
65396;HTU21D;52004;45.136;39.010;2023-01-31T17:16:51;7.89;65.24
65396;HTU21D;52004;45.136;39.010;2023-01-31T17:19:17;7.88;65.26
65396;HTU21D;52004;45.136;39.010;2023-01-31T17:21:43;7.87;65.29
65396;HTU21D;52004;45.136;39.010;2023-01-31T17:24:10;7.86;65.31
65396;HTU21D;52004;45.136;39.010;2023-01-31T17:26:36;7.83;65.34
65396;HTU21D;52004;45.136;39.010;2023-01-31T17:29:02;7.84;65.36
65396;HTU21D;52004;45.136;39.010;2023-01-31T17:31:28;7.81;65.34
65396;HTU21D;52004;45.136;39.010;2023-01-31T17:33:55;7.77;65.36
65396;HTU21D;52004;45.136;39.010;2023-01-31T17:36:21;7.76;65.40
65396;HTU21D;52004;45.136;39.010;2023-01-31T17:38:47;7.73;65.44
65396;HTU21D;52004;45.136;39.010;2023-01-31T17:41:17;7.72;65.46
65396;HTU21D;52004;45.136;39.010;2023-01-31T17:43:43;7.70;65.49
65396;HTU21D;52004;45.136;39.010;2023-01-31T17:46:13;7.70;65.50
65396;HTU21D;52004;45.136;39.010;2023-01-31T17:48:40;7.67;65.53